sensor_id;sensor_type;location;lat;lon;timestamp;P1;durP1;ratioP1;P2;durP2;ratioP2
77466;SDS011;66564;42.482;25.548;2023-05-09T00:00:08;13.18;;;8.60;;
77466;SDS011;66564;42.482;25.548;2023-05-09T00:02:35;11.75;;;8.48;;
77466;SDS011;66564;42.482;25.548;2023-05-09T00:05:02;10.48;;;8.30;;
77466;SDS011;66564;42.482;25.548;2023-05-09T00:07:29;14.15;;;7.57;;
77466;SDS011;66564;42.482;25.548;2023-05-09T00:09:55;9.98;;;7.70;;
77466;SDS011;66564;42.482;25.548;2023-05-09T00:12:21;10.95;;;8.30;;
77466;SDS011;66564;42.482;25.548;2023-05-09T00:14:48;10.82;;;8.30;;
77466;SDS011;66564;42.482;25.548;2023-05-09T00:17:16;10.75;;;8.35;;
77466;SDS011;66564;42.482;25.548;2023-05-09T00:19:42;10.25;;;7.95;;
77466;SDS011;66564;42.482;25.548;2023-05-09T00:22:08;11.48;;;7.93;;
77466;SDS011;66564;42.482;25.548;2023-05-09T00:24:37;11.60;;;8.32;;
77466;SDS011;66564;42.482;25.548;2023-05-09T00:27:02;10.55;;;7.63;;
77466;SDS011;66564;42.482;25.548;2023-05-09T00:29:28;11.15;;;7.50;;
77466;SDS011;66564;42.482;25.548;2023-05-09T00:31:54;12.20;;;8.15;;
77466;SDS011;66564;42.482;25.548;2023-05-09T00:34:19;11.70;;;8.40;;
77466;SDS011;66564;42.482;25.548;2023-05-09T00:36:46;12.98;;;7.57;;
77466;SDS011;66564;42.482;25.548;2023-05-09T00:39:12;11.75;;;7.68;;
77466;SDS011;66564;42.482;25.548;2023-05-09T00:41:37;9.73;;;7.90;;
77466;SDS011;66564;42.482;25.548;2023-05-09T00:44:03;11.15;;;7.43;;
77466;SDS011;66564;42.482;25.548;2023-05-09T00:46:29;12.02;;;7.75;;
77466;SDS011;66564;42.482;25.548;2023-05-09T00:48:54;9.70;;;8.45;;
77466;SDS011;66564;42.482;25.548;2023-05-09T00:51:20;11.32;;;7.53;;
77466;SDS011;66564;42.482;25.548;2023-05-09T00:53:46;11.65;;;7.40;;
77466;SDS011;66564;42.482;25.548;2023-05-09T00:56:12;14.93;;;8.55;;
77466;SDS011;66564;42.482;25.548;2023-05-09T00:58:38;12.50;;;6.95;;
77466;SDS011;66564;42.482;25.548;2023-05-09T01:01:05;9.88;;;7.82;;
77466;SDS011;66564;42.482;25.548;2023-05-09T01:03:30;10.82;;;7.10;;
77466;SDS011;66564;42.482;25.548;2023-05-09T01:06:02;9.40;;;7.07;;
77466;SDS011;66564;42.482;25.548;2023-05-09T01:11:11;9.23;;;7.40;;
77466;SDS011;66564;42.482;25.548;2023-05-09T01:13:51;11.32;;;7.68;;
77466;SDS011;66564;42.482;25.548;2023-05-09T01:16:31;11.52;;;7.43;;
77466;SDS011;66564;42.482;25.548;2023-05-09T01:22:06;10.45;;;7.55;;
77466;SDS011;66564;42.482;25.548;2023-05-09T01:24:46;11.55;;;7.45;;
77466;SDS011;66564;42.482;25.548;2023-05-09T01:30:20;10.32;;;7.20;;
77466;SDS011;66564;42.482;25.548;2023-05-09T01:32:48;11.52;;;7.38;;
77466;SDS011;66564;42.482;25.548;2023-05-09T01:35:16;9.85;;;7.00;;
77466;SDS011;66564;42.482;25.548;2023-05-09T01:37:42;10.02;;;7.97;;
77466;SDS011;66564;42.482;25.548;2023-05-09T01:40:13;13.85;;;7.40;;
77466;SDS011;66564;42.482;25.548;2023-05-09T01:45:15;10.95;;;6.57;;
77466;SDS011;66564;42.482;25.548;2023-05-09T01:47:42;11.80;;;6.97;;
77466;SDS011;66564;42.482;25.548;2023-05-09T01:50:09;10.55;;;7.05;;
77466;SDS011;66564;42.482;25.548;2023-05-09T01:52:36;9.50;;;7.35;;
77466;SDS011;66564;42.482;25.548;2023-05-09T01:55:03;8.98;;;7.20;;
77466;SDS011;66564;42.482;25.548;2023-05-09T01:57:30;10.88;;;6.20;;
77466;SDS011;66564;42.482;25.548;2023-05-09T01:59:58;10.88;;;6.90;;
77466;SDS011;66564;42.482;25.548;2023-05-09T02:02:26;9.55;;;7.22;;
77466;SDS011;66564;42.482;25.548;2023-05-09T02:04:53;11.77;;;8.07;;
77466;SDS011;66564;42.482;25.548;2023-05-09T02:07:21;8.25;;;6.65;;
77466;SDS011;66564;42.482;25.548;2023-05-09T02:09:48;9.95;;;6.88;;
77466;SDS011;66564;42.482;25.548;2023-05-09T02:12:21;11.73;;;7.63;;
77466;SDS011;66564;42.482;25.548;2023-05-09T02:14:48;16.10;;;6.68;;
77466;SDS011;66564;42.482;25.548;2023-05-09T02:17:14;10.30;;;6.20;;
77466;SDS011;66564;42.482;25.548;2023-05-09T02:19:41;6.75;;;5.80;;
77466;SDS011;66564;42.482;25.548;2023-05-09T02:22:07;9.75;;;5.78;;
77466;SDS011;66564;42.482;25.548;2023-05-09T02:24:32;9.85;;;6.38;;
77466;SDS011;66564;42.482;25.548;2023-05-09T02:26:59;8.50;;;6.78;;
77466;SDS011;66564;42.482;25.548;2023-05-09T02:29:27;12.00;;;6.38;;
77466;SDS011;66564;42.482;25.548;2023-05-09T02:32:03;9.05;;;6.57;;
77466;SDS011;66564;42.482;25.548;2023-05-09T02:34:32;8.73;;;6.40;;
77466;SDS011;66564;42.482;25.548;2023-05-09T02:36:59;8.70;;;6.43;;
77466;SDS011;66564;42.482;25.548;2023-05-09T02:39:25;10.25;;;6.55;;
77466;SDS011;66564;42.482;25.548;2023-05-09T02:42:00;10.02;;;6.88;;
77466;SDS011;66564;42.482;25.548;2023-05-09T02:44:30;11.68;;;6.70;;
77466;SDS011;66564;42.482;25.548;2023-05-09T02:46:55;10.02;;;7.18;;
77466;SDS011;66564;42.482;25.548;2023-05-09T02:49:21;10.18;;;7.15;;
77466;SDS011;66564;42.482;25.548;2023-05-09T02:51:46;11.48;;;6.55;;
77466;SDS011;66564;42.482;25.548;2023-05-09T02:54:12;8.88;;;6.05;;
77466;SDS011;66564;42.482;25.548;2023-05-09T02:56:37;8.23;;;6.15;;
77466;SDS011;66564;42.482;25.548;2023-05-09T02:59:03;9.82;;;6.18;;
77466;SDS011;66564;42.482;25.548;2023-05-09T03:01:29;10.18;;;5.90;;
77466;SDS011;66564;42.482;25.548;2023-05-09T03:03:54;10.45;;;6.35;;
77466;SDS011;66564;42.482;25.548;2023-05-09T03:06:20;9.85;;;6.57;;
77466;SDS011;66564;42.482;25.548;2023-05-09T03:08:45;9.48;;;6.13;;
77466;SDS011;66564;42.482;25.548;2023-05-09T03:11:11;12.70;;;5.68;;
77466;SDS011;66564;42.482;25.548;2023-05-09T03:13:36;11.10;;;6.15;;
77466;SDS011;66564;42.482;25.548;2023-05-09T03:16:02;13.00;;;6.03;;
77466;SDS011;66564;42.482;25.548;2023-05-09T03:18:27;9.60;;;6.50;;
77466;SDS011;66564;42.482;25.548;2023-05-09T03:20:53;9.63;;;5.50;;
77466;SDS011;66564;42.482;25.548;2023-05-09T03:23:18;8.95;;;6.28;;
77466;SDS011;66564;42.482;25.548;2023-05-09T03:25:44;9.63;;;7.07;;
77466;SDS011;66564;42.482;25.548;2023-05-09T03:28:09;13.50;;;6.88;;
77466;SDS011;66564;42.482;25.548;2023-05-09T03:30:35;10.65;;;7.10;;
77466;SDS011;66564;42.482;25.548;2023-05-09T03:33:00;11.27;;;7.35;;
77466;SDS011;66564;42.482;25.548;2023-05-09T03:35:26;12.98;;;7.63;;
77466;SDS011;66564;42.482;25.548;2023-05-09T03:37:51;11.93;;;6.70;;
77466;SDS011;66564;42.482;25.548;2023-05-09T03:40:17;12.73;;;8.70;;
77466;SDS011;66564;42.482;25.548;2023-05-09T03:42:42;9.73;;;7.18;;
77466;SDS011;66564;42.482;25.548;2023-05-09T03:45:08;11.77;;;6.75;;
77466;SDS011;66564;42.482;25.548;2023-05-09T03:47:34;12.30;;;7.03;;
77466;SDS011;66564;42.482;25.548;2023-05-09T03:49:59;12.02;;;7.03;;
77466;SDS011;66564;42.482;25.548;2023-05-09T03:52:25;11.88;;;7.20;;
77466;SDS011;66564;42.482;25.548;2023-05-09T03:54:51;14.80;;;7.85;;
77466;SDS011;66564;42.482;25.548;2023-05-09T03:57:27;17.17;;;7.60;;
77466;SDS011;66564;42.482;25.548;2023-05-09T03:59:53;9.98;;;7.03;;
77466;SDS011;66564;42.482;25.548;2023-05-09T04:02:18;14.30;;;6.78;;
77466;SDS011;66564;42.482;25.548;2023-05-09T04:04:44;9.82;;;7.40;;
77466;SDS011;66564;42.482;25.548;2023-05-09T04:07:11;10.95;;;6.68;;
77466;SDS011;66564;42.482;25.548;2023-05-09T04:09:36;13.35;;;8.02;;
77466;SDS011;66564;42.482;25.548;2023-05-09T04:12:02;15.45;;;7.88;;
77466;SDS011;66564;42.482;25.548;2023-05-09T04:14:28;13.98;;;7.55;;
77466;SDS011;66564;42.482;25.548;2023-05-09T04:16:53;12.65;;;7.00;;
77466;SDS011;66564;42.482;25.548;2023-05-09T04:19:18;12.35;;;6.93;;
77466;SDS011;66564;42.482;25.548;2023-05-09T04:21:44;8.75;;;7.03;;
77466;SDS011;66564;42.482;25.548;2023-05-09T04:24:09;10.18;;;7.72;;
77466;SDS011;66564;42.482;25.548;2023-05-09T04:26:35;10.00;;;7.03;;
77466;SDS011;66564;42.482;25.548;2023-05-09T04:29:02;13.82;;;8.30;;
77466;SDS011;66564;42.482;25.548;2023-05-09T04:31:28;12.48;;;8.10;;
77466;SDS011;66564;42.482;25.548;2023-05-09T04:33:55;12.85;;;8.32;;
77466;SDS011;66564;42.482;25.548;2023-05-09T04:36:22;10.13;;;6.55;;
77466;SDS011;66564;42.482;25.548;2023-05-09T04:38:47;11.10;;;7.32;;
77466;SDS011;66564;42.482;25.548;2023-05-09T04:41:13;12.20;;;7.72;;
77466;SDS011;66564;42.482;25.548;2023-05-09T04:43:41;13.82;;;7.20;;
77466;SDS011;66564;42.482;25.548;2023-05-09T04:46:07;11.68;;;7.60;;
77466;SDS011;66564;42.482;25.548;2023-05-09T04:48:33;10.80;;;8.05;;
77466;SDS011;66564;42.482;25.548;2023-05-09T04:50:59;14.40;;;7.45;;
77466;SDS011;66564;42.482;25.548;2023-05-09T04:53:25;13.68;;;8.38;;
77466;SDS011;66564;42.482;25.548;2023-05-09T04:55:52;12.27;;;8.85;;
77466;SDS011;66564;42.482;25.548;2023-05-09T04:58:18;12.40;;;8.55;;
77466;SDS011;66564;42.482;25.548;2023-05-09T05:00:43;13.35;;;8.23;;
77466;SDS011;66564;42.482;25.548;2023-05-09T05:03:11;10.73;;;7.50;;
77466;SDS011;66564;42.482;25.548;2023-05-09T05:05:37;26.25;;;8.98;;
77466;SDS011;66564;42.482;25.548;2023-05-09T05:08:16;19.05;;;8.38;;
77466;SDS011;66564;42.482;25.548;2023-05-09T05:10:41;14.55;;;8.77;;
77466;SDS011;66564;42.482;25.548;2023-05-09T05:13:07;14.38;;;9.07;;
77466;SDS011;66564;42.482;25.548;2023-05-09T05:15:32;12.73;;;9.65;;
77466;SDS011;66564;42.482;25.548;2023-05-09T05:18:13;12.27;;;9.02;;
77466;SDS011;66564;42.482;25.548;2023-05-09T05:20:40;15.10;;;8.35;;
77466;SDS011;66564;42.482;25.548;2023-05-09T05:23:06;17.08;;;9.20;;
77466;SDS011;66564;42.482;25.548;2023-05-09T05:25:32;16.88;;;10.35;;
77466;SDS011;66564;42.482;25.548;2023-05-09T05:27:59;15.57;;;9.57;;
77466;SDS011;66564;42.482;25.548;2023-05-09T05:30:24;14.00;;;8.90;;
77466;SDS011;66564;42.482;25.548;2023-05-09T05:32:50;14.65;;;9.80;;
77466;SDS011;66564;42.482;25.548;2023-05-09T05:35:15;13.65;;;9.18;;
77466;SDS011;66564;42.482;25.548;2023-05-09T05:37:41;15.35;;;9.75;;
77466;SDS011;66564;42.482;25.548;2023-05-09T05:40:07;15.57;;;10.68;;
77466;SDS011;66564;42.482;25.548;2023-05-09T05:42:33;15.52;;;9.82;;
77466;SDS011;66564;42.482;25.548;2023-05-09T05:44:59;12.52;;;8.88;;
77466;SDS011;66564;42.482;25.548;2023-05-09T05:47:34;14.40;;;10.00;;
77466;SDS011;66564;42.482;25.548;2023-05-09T05:52:27;20.10;;;10.50;;
77466;SDS011;66564;42.482;25.548;2023-05-09T05:54:54;17.08;;;10.65;;
77466;SDS011;66564;42.482;25.548;2023-05-09T05:57:20;17.40;;;10.30;;
77466;SDS011;66564;42.482;25.548;2023-05-09T05:59:46;14.32;;;9.85;;
77466;SDS011;66564;42.482;25.548;2023-05-09T06:02:12;23.67;;;12.57;;
77466;SDS011;66564;42.482;25.548;2023-05-09T06:04:38;18.10;;;10.90;;
77466;SDS011;66564;42.482;25.548;2023-05-09T06:07:04;16.42;;;10.55;;
77466;SDS011;66564;42.482;25.548;2023-05-09T06:09:30;12.73;;;8.25;;
77466;SDS011;66564;42.482;25.548;2023-05-09T06:11:55;19.20;;;8.68;;
77466;SDS011;66564;42.482;25.548;2023-05-09T06:14:21;10.80;;;7.53;;
77466;SDS011;66564;42.482;25.548;2023-05-09T06:16:46;13.50;;;7.43;;
77466;SDS011;66564;42.482;25.548;2023-05-09T06:19:12;15.00;;;7.93;;
77466;SDS011;66564;42.482;25.548;2023-05-09T06:21:38;14.35;;;7.75;;
77466;SDS011;66564;42.482;25.548;2023-05-09T06:24:03;10.82;;;7.28;;
77466;SDS011;66564;42.482;25.548;2023-05-09T06:26:29;9.95;;;7.70;;
77466;SDS011;66564;42.482;25.548;2023-05-09T06:28:55;13.98;;;8.00;;
77466;SDS011;66564;42.482;25.548;2023-05-09T06:31:20;9.65;;;6.72;;
77466;SDS011;66564;42.482;25.548;2023-05-09T06:33:46;8.57;;;6.72;;
77466;SDS011;66564;42.482;25.548;2023-05-09T06:36:12;10.80;;;7.30;;
77466;SDS011;66564;42.482;25.548;2023-05-09T06:38:37;13.27;;;7.70;;
77466;SDS011;66564;42.482;25.548;2023-05-09T06:41:03;10.38;;;6.68;;
77466;SDS011;66564;42.482;25.548;2023-05-09T06:43:29;12.45;;;7.18;;
77466;SDS011;66564;42.482;25.548;2023-05-09T06:45:54;10.88;;;7.55;;
77466;SDS011;66564;42.482;25.548;2023-05-09T06:48:20;15.50;;;8.32;;
77466;SDS011;66564;42.482;25.548;2023-05-09T06:50:48;12.02;;;7.68;;
77466;SDS011;66564;42.482;25.548;2023-05-09T06:53:13;11.43;;;7.95;;
77466;SDS011;66564;42.482;25.548;2023-05-09T06:55:39;11.73;;;7.85;;
77466;SDS011;66564;42.482;25.548;2023-05-09T06:58:05;12.23;;;7.72;;
77466;SDS011;66564;42.482;25.548;2023-05-09T07:00:30;12.60;;;8.57;;
77466;SDS011;66564;42.482;25.548;2023-05-09T07:02:56;11.90;;;7.80;;
77466;SDS011;66564;42.482;25.548;2023-05-09T07:05:21;14.18;;;8.23;;
77466;SDS011;66564;42.482;25.548;2023-05-09T07:07:47;10.88;;;7.85;;
77466;SDS011;66564;42.482;25.548;2023-05-09T07:10:12;13.50;;;8.05;;
77466;SDS011;66564;42.482;25.548;2023-05-09T07:12:38;15.73;;;8.13;;
77466;SDS011;66564;42.482;25.548;2023-05-09T07:15:04;11.27;;;8.00;;
77466;SDS011;66564;42.482;25.548;2023-05-09T07:17:30;10.02;;;7.55;;
77466;SDS011;66564;42.482;25.548;2023-05-09T07:19:56;8.95;;;6.78;;
77466;SDS011;66564;42.482;25.548;2023-05-09T07:22:21;9.73;;;6.50;;
77466;SDS011;66564;42.482;25.548;2023-05-09T07:24:50;11.20;;;6.20;;
77466;SDS011;66564;42.482;25.548;2023-05-09T07:27:15;9.95;;;7.10;;
77466;SDS011;66564;42.482;25.548;2023-05-09T07:29:41;9.90;;;6.32;;
77466;SDS011;66564;42.482;25.548;2023-05-09T07:32:06;9.50;;;5.85;;
77466;SDS011;66564;42.482;25.548;2023-05-09T07:34:32;13.15;;;6.28;;
77466;SDS011;66564;42.482;25.548;2023-05-09T07:36:57;12.07;;;6.55;;
77466;SDS011;66564;42.482;25.548;2023-05-09T07:39:23;8.35;;;6.18;;
77466;SDS011;66564;42.482;25.548;2023-05-09T07:41:48;11.75;;;6.18;;
77466;SDS011;66564;42.482;25.548;2023-05-09T07:44:14;9.15;;;6.60;;
77466;SDS011;66564;42.482;25.548;2023-05-09T07:46:39;12.82;;;7.68;;
77466;SDS011;66564;42.482;25.548;2023-05-09T07:49:06;12.38;;;7.85;;
77466;SDS011;66564;42.482;25.548;2023-05-09T07:51:32;14.30;;;8.95;;
77466;SDS011;66564;42.482;25.548;2023-05-09T07:53:57;13.65;;;8.18;;
77466;SDS011;66564;42.482;25.548;2023-05-09T07:56:23;13.95;;;7.78;;
77466;SDS011;66564;42.482;25.548;2023-05-09T07:58:49;12.48;;;7.72;;
77466;SDS011;66564;42.482;25.548;2023-05-09T08:01:14;12.95;;;7.60;;
77466;SDS011;66564;42.482;25.548;2023-05-09T08:03:40;15.68;;;7.60;;
77466;SDS011;66564;42.482;25.548;2023-05-09T08:06:07;12.98;;;8.57;;
77466;SDS011;66564;42.482;25.548;2023-05-09T08:08:33;13.15;;;8.35;;
77466;SDS011;66564;42.482;25.548;2023-05-09T08:10:58;12.82;;;8.07;;
77466;SDS011;66564;42.482;25.548;2023-05-09T08:13:24;10.20;;;8.15;;
77466;SDS011;66564;42.482;25.548;2023-05-09T08:15:49;11.55;;;7.35;;
77466;SDS011;66564;42.482;25.548;2023-05-09T08:18:15;14.32;;;8.38;;
77466;SDS011;66564;42.482;25.548;2023-05-09T08:20:41;11.27;;;8.00;;
77466;SDS011;66564;42.482;25.548;2023-05-09T08:23:07;10.75;;;7.93;;
77466;SDS011;66564;42.482;25.548;2023-05-09T08:25:33;15.70;;;8.73;;
77466;SDS011;66564;42.482;25.548;2023-05-09T08:27:58;11.27;;;8.38;;
77466;SDS011;66564;42.482;25.548;2023-05-09T08:30:24;14.73;;;7.97;;
77466;SDS011;66564;42.482;25.548;2023-05-09T08:32:50;13.02;;;8.65;;
77466;SDS011;66564;42.482;25.548;2023-05-09T08:35:15;12.05;;;8.48;;
77466;SDS011;66564;42.482;25.548;2023-05-09T08:37:41;11.25;;;7.95;;
77466;SDS011;66564;42.482;25.548;2023-05-09T08:40:06;22.40;;;9.45;;
77466;SDS011;66564;42.482;25.548;2023-05-09T08:42:35;12.32;;;8.88;;
77466;SDS011;66564;42.482;25.548;2023-05-09T08:45:11;13.93;;;9.07;;
77466;SDS011;66564;42.482;25.548;2023-05-09T08:47:40;15.60;;;8.73;;
77466;SDS011;66564;42.482;25.548;2023-05-09T08:50:07;14.30;;;8.90;;
77466;SDS011;66564;42.482;25.548;2023-05-09T08:52:33;17.70;;;9.07;;
77466;SDS011;66564;42.482;25.548;2023-05-09T08:55:00;21.17;;;9.27;;
77466;SDS011;66564;42.482;25.548;2023-05-09T08:57:29;15.77;;;9.32;;
77466;SDS011;66564;42.482;25.548;2023-05-09T08:59:59;14.52;;;8.70;;
77466;SDS011;66564;42.482;25.548;2023-05-09T09:02:25;15.30;;;10.15;;
77466;SDS011;66564;42.482;25.548;2023-05-09T09:04:53;13.10;;;8.70;;
77466;SDS011;66564;42.482;25.548;2023-05-09T09:07:18;14.60;;;10.10;;
77466;SDS011;66564;42.482;25.548;2023-05-09T09:09:45;13.98;;;8.80;;
77466;SDS011;66564;42.482;25.548;2023-05-09T09:12:13;10.38;;;7.80;;
77466;SDS011;66564;42.482;25.548;2023-05-09T09:14:41;13.35;;;8.20;;
77466;SDS011;66564;42.482;25.548;2023-05-09T09:17:11;13.80;;;8.27;;
77466;SDS011;66564;42.482;25.548;2023-05-09T09:19:40;13.70;;;8.25;;
77466;SDS011;66564;42.482;25.548;2023-05-09T09:22:08;13.40;;;7.78;;
77466;SDS011;66564;42.482;25.548;2023-05-09T09:24:38;11.85;;;8.40;;
77466;SDS011;66564;42.482;25.548;2023-05-09T09:27:04;9.57;;;7.25;;
77466;SDS011;66564;42.482;25.548;2023-05-09T09:29:30;10.98;;;7.72;;
77466;SDS011;66564;42.482;25.548;2023-05-09T09:32:00;11.07;;;7.50;;
77466;SDS011;66564;42.482;25.548;2023-05-09T09:34:27;10.82;;;6.70;;
77466;SDS011;66564;42.482;25.548;2023-05-09T09:36:53;10.95;;;7.22;;
77466;SDS011;66564;42.482;25.548;2023-05-09T09:39:18;10.13;;;6.85;;
77466;SDS011;66564;42.482;25.548;2023-05-09T09:41:45;8.60;;;6.40;;
77466;SDS011;66564;42.482;25.548;2023-05-09T09:44:12;8.77;;;5.72;;
77466;SDS011;66564;42.482;25.548;2023-05-09T09:49:20;9.60;;;5.85;;
77466;SDS011;66564;42.482;25.548;2023-05-09T09:51:52;8.63;;;5.70;;
77466;SDS011;66564;42.482;25.548;2023-05-09T09:54:18;6.93;;;5.03;;
77466;SDS011;66564;42.482;25.548;2023-05-09T09:56:48;8.75;;;4.95;;
77466;SDS011;66564;42.482;25.548;2023-05-09T09:59:18;7.40;;;5.20;;
77466;SDS011;66564;42.482;25.548;2023-05-09T10:04:19;8.93;;;5.03;;
77466;SDS011;66564;42.482;25.548;2023-05-09T10:09:24;6.75;;;5.43;;
77466;SDS011;66564;42.482;25.548;2023-05-09T10:11:51;7.93;;;5.82;;
77466;SDS011;66564;42.482;25.548;2023-05-09T10:14:18;7.63;;;5.55;;
77466;SDS011;66564;42.482;25.548;2023-05-09T10:16:46;8.23;;;6.03;;
77466;SDS011;66564;42.482;25.548;2023-05-09T10:19:12;11.02;;;6.35;;
77466;SDS011;66564;42.482;25.548;2023-05-09T10:21:42;10.63;;;6.75;;
77466;SDS011;66564;42.482;25.548;2023-05-09T10:24:08;9.20;;;6.18;;
77466;SDS011;66564;42.482;25.548;2023-05-09T10:26:38;10.80;;;6.88;;
77466;SDS011;66564;42.482;25.548;2023-05-09T10:29:09;12.10;;;6.80;;
77466;SDS011;66564;42.482;25.548;2023-05-09T10:31:36;13.80;;;7.85;;
77466;SDS011;66564;42.482;25.548;2023-05-09T10:34:05;10.15;;;7.20;;
77466;SDS011;66564;42.482;25.548;2023-05-09T10:36:34;13.82;;;6.88;;
77466;SDS011;66564;42.482;25.548;2023-05-09T10:39:00;10.40;;;6.78;;
77466;SDS011;66564;42.482;25.548;2023-05-09T10:41:26;14.60;;;8.10;;
77466;SDS011;66564;42.482;25.548;2023-05-09T10:43:55;12.05;;;6.93;;
77466;SDS011;66564;42.482;25.548;2023-05-09T10:46:23;12.68;;;6.95;;
77466;SDS011;66564;42.482;25.548;2023-05-09T10:48:49;13.07;;;7.85;;
77466;SDS011;66564;42.482;25.548;2023-05-09T10:51:15;11.85;;;7.68;;
77466;SDS011;66564;42.482;25.548;2023-05-09T10:56:24;13.45;;;7.13;;
77466;SDS011;66564;42.482;25.548;2023-05-09T10:58:54;12.55;;;6.50;;
77466;SDS011;66564;42.482;25.548;2023-05-09T11:01:29;13.82;;;7.57;;
77466;SDS011;66564;42.482;25.548;2023-05-09T11:03:59;13.18;;;6.85;;
77466;SDS011;66564;42.482;25.548;2023-05-09T11:12:07;9.93;;;7.07;;
77466;SDS011;66564;42.482;25.548;2023-05-09T11:14:44;10.90;;;7.07;;
77466;SDS011;66564;42.482;25.548;2023-05-09T11:22:15;13.73;;;7.05;;
77466;SDS011;66564;42.482;25.548;2023-05-09T11:24:47;9.75;;;6.70;;
77466;SDS011;66564;42.482;25.548;2023-05-09T11:27:15;13.35;;;7.72;;
77466;SDS011;66564;42.482;25.548;2023-05-09T11:29:56;10.95;;;6.47;;
77466;SDS011;66564;42.482;25.548;2023-05-09T11:32:26;12.75;;;7.65;;
77466;SDS011;66564;42.482;25.548;2023-05-09T11:35:14;10.40;;;6.85;;
77466;SDS011;66564;42.482;25.548;2023-05-09T11:40:15;8.63;;;6.32;;
77466;SDS011;66564;42.482;25.548;2023-05-09T11:42:45;14.57;;;6.65;;
77466;SDS011;66564;42.482;25.548;2023-05-09T11:45:14;10.93;;;6.72;;
77466;SDS011;66564;42.482;25.548;2023-05-09T11:47:40;7.97;;;6.50;;
77466;SDS011;66564;42.482;25.548;2023-05-09T11:50:06;11.57;;;7.85;;
77466;SDS011;66564;42.482;25.548;2023-05-09T11:52:35;11.63;;;6.70;;
77466;SDS011;66564;42.482;25.548;2023-05-09T11:55:02;9.35;;;6.25;;
77466;SDS011;66564;42.482;25.548;2023-05-09T11:57:30;10.15;;;6.97;;
77466;SDS011;66564;42.482;25.548;2023-05-09T11:59:56;9.63;;;5.88;;
77466;SDS011;66564;42.482;25.548;2023-05-09T12:02:21;10.65;;;6.72;;
77466;SDS011;66564;42.482;25.548;2023-05-09T12:04:48;10.75;;;6.93;;
77466;SDS011;66564;42.482;25.548;2023-05-09T12:07:15;10.25;;;6.28;;
77466;SDS011;66564;42.482;25.548;2023-05-09T12:09:42;10.93;;;7.20;;
77466;SDS011;66564;42.482;25.548;2023-05-09T12:12:08;12.07;;;6.82;;
77466;SDS011;66564;42.482;25.548;2023-05-09T12:14:36;9.90;;;6.32;;
77466;SDS011;66564;42.482;25.548;2023-05-09T12:17:02;11.65;;;6.28;;
77466;SDS011;66564;42.482;25.548;2023-05-09T12:19:28;8.82;;;6.13;;
77466;SDS011;66564;42.482;25.548;2023-05-09T12:21:54;8.77;;;6.03;;
77466;SDS011;66564;42.482;25.548;2023-05-09T12:24:21;10.65;;;6.72;;
77466;SDS011;66564;42.482;25.548;2023-05-09T12:26:48;10.38;;;6.43;;
77466;SDS011;66564;42.482;25.548;2023-05-09T12:29:14;13.82;;;7.32;;
77466;SDS011;66564;42.482;25.548;2023-05-09T12:31:41;9.35;;;6.07;;
77466;SDS011;66564;42.482;25.548;2023-05-09T12:34:07;12.45;;;6.43;;
77466;SDS011;66564;42.482;25.548;2023-05-09T12:36:34;11.73;;;5.97;;
77466;SDS011;66564;42.482;25.548;2023-05-09T12:39:00;7.72;;;5.65;;
77466;SDS011;66564;42.482;25.548;2023-05-09T12:41:32;8.35;;;6.57;;
77466;SDS011;66564;42.482;25.548;2023-05-09T12:43:58;10.80;;;5.80;;
77466;SDS011;66564;42.482;25.548;2023-05-09T12:46:24;8.70;;;6.25;;
77466;SDS011;66564;42.482;25.548;2023-05-09T12:48:49;8.60;;;6.35;;
77466;SDS011;66564;42.482;25.548;2023-05-09T12:51:19;7.20;;;5.82;;
77466;SDS011;66564;42.482;25.548;2023-05-09T12:53:45;7.45;;;5.40;;
77466;SDS011;66564;42.482;25.548;2023-05-09T12:56:17;10.93;;;7.03;;
77466;SDS011;66564;42.482;25.548;2023-05-09T12:58:54;6.53;;;5.50;;
77466;SDS011;66564;42.482;25.548;2023-05-09T13:01:20;11.73;;;6.32;;
77466;SDS011;66564;42.482;25.548;2023-05-09T13:03:51;7.63;;;6.00;;
77466;SDS011;66564;42.482;25.548;2023-05-09T13:06:24;8.43;;;6.00;;
77466;SDS011;66564;42.482;25.548;2023-05-09T13:08:56;9.68;;;7.18;;
77466;SDS011;66564;42.482;25.548;2023-05-09T13:11:23;9.25;;;6.45;;
77466;SDS011;66564;42.482;25.548;2023-05-09T13:13:50;12.55;;;6.82;;
77466;SDS011;66564;42.482;25.548;2023-05-09T13:16:15;11.98;;;6.22;;
77466;SDS011;66564;42.482;25.548;2023-05-09T13:18:41;10.32;;;6.30;;
77466;SDS011;66564;42.482;25.548;2023-05-09T13:21:06;9.15;;;6.47;;
77466;SDS011;66564;42.482;25.548;2023-05-09T13:23:32;9.60;;;6.78;;
77466;SDS011;66564;42.482;25.548;2023-05-09T13:25:57;10.10;;;6.95;;
77466;SDS011;66564;42.482;25.548;2023-05-09T13:28:22;8.65;;;5.70;;
77466;SDS011;66564;42.482;25.548;2023-05-09T13:30:48;8.30;;;5.88;;
77466;SDS011;66564;42.482;25.548;2023-05-09T13:33:14;9.02;;;6.80;;
77466;SDS011;66564;42.482;25.548;2023-05-09T13:35:39;7.95;;;6.43;;
77466;SDS011;66564;42.482;25.548;2023-05-09T13:38:05;8.77;;;6.00;;
77466;SDS011;66564;42.482;25.548;2023-05-09T13:40:30;10.35;;;6.88;;
77466;SDS011;66564;42.482;25.548;2023-05-09T13:42:56;13.90;;;7.45;;
77466;SDS011;66564;42.482;25.548;2023-05-09T13:45:22;10.10;;;6.88;;
77466;SDS011;66564;42.482;25.548;2023-05-09T13:47:48;9.10;;;6.25;;
77466;SDS011;66564;42.482;25.548;2023-05-09T13:50:14;9.50;;;7.47;;
77466;SDS011;66564;42.482;25.548;2023-05-09T13:52:40;12.15;;;7.57;;
77466;SDS011;66564;42.482;25.548;2023-05-09T13:55:05;10.43;;;6.15;;
77466;SDS011;66564;42.482;25.548;2023-05-09T13:57:31;11.32;;;6.40;;
77466;SDS011;66564;42.482;25.548;2023-05-09T14:00:02;9.48;;;6.38;;
77466;SDS011;66564;42.482;25.548;2023-05-09T14:02:29;8.38;;;5.70;;
77466;SDS011;66564;42.482;25.548;2023-05-09T14:04:54;8.63;;;6.00;;
77466;SDS011;66564;42.482;25.548;2023-05-09T14:07:20;9.23;;;5.68;;
77466;SDS011;66564;42.482;25.548;2023-05-09T14:09:45;11.75;;;6.30;;
77466;SDS011;66564;42.482;25.548;2023-05-09T14:12:11;9.05;;;6.30;;
77466;SDS011;66564;42.482;25.548;2023-05-09T14:14:37;10.80;;;6.25;;
77466;SDS011;66564;42.482;25.548;2023-05-09T14:17:02;9.60;;;6.55;;
77466;SDS011;66564;42.482;25.548;2023-05-09T14:19:28;9.00;;;6.60;;
77466;SDS011;66564;42.482;25.548;2023-05-09T14:21:56;9.63;;;6.95;;
77466;SDS011;66564;42.482;25.548;2023-05-09T14:24:22;8.50;;;6.82;;
77466;SDS011;66564;42.482;25.548;2023-05-09T14:26:48;8.85;;;6.97;;
77466;SDS011;66564;42.482;25.548;2023-05-09T14:29:13;9.43;;;6.90;;
77466;SDS011;66564;42.482;25.548;2023-05-09T14:31:43;10.65;;;7.22;;
77466;SDS011;66564;42.482;25.548;2023-05-09T14:34:09;11.52;;;7.35;;
77466;SDS011;66564;42.482;25.548;2023-05-09T14:36:35;8.20;;;6.35;;
77466;SDS011;66564;42.482;25.548;2023-05-09T14:39:01;9.38;;;6.75;;
77466;SDS011;66564;42.482;25.548;2023-05-09T14:41:27;10.45;;;7.60;;
77466;SDS011;66564;42.482;25.548;2023-05-09T14:43:52;13.98;;;6.88;;
77466;SDS011;66564;42.482;25.548;2023-05-09T14:46:18;14.00;;;7.60;;
77466;SDS011;66564;42.482;25.548;2023-05-09T14:48:43;12.63;;;7.05;;
77466;SDS011;66564;42.482;25.548;2023-05-09T14:51:10;7.97;;;6.40;;
77466;SDS011;66564;42.482;25.548;2023-05-09T14:53:36;10.60;;;7.55;;
77466;SDS011;66564;42.482;25.548;2023-05-09T14:56:06;12.85;;;7.75;;
77466;SDS011;66564;42.482;25.548;2023-05-09T14:58:32;12.05;;;8.35;;
77466;SDS011;66564;42.482;25.548;2023-05-09T15:01:01;10.73;;;7.18;;